sensor_id;sensor_type;location;lat;lon;timestamp;P1;durP1;ratioP1;P2;durP2;ratioP2
26696;SDS011;14312;52.614;13.496;2022-08-01T00:00:27;2.20;;;2.00;;
26696;SDS011;14312;52.614;13.496;2022-08-01T00:03:13;2.58;;;2.00;;
26696;SDS011;14312;52.614;13.496;2022-08-01T00:05:59;2.47;;;2.28;;
26696;SDS011;14312;52.614;13.496;2022-08-01T00:08:45;1.92;;;1.83;;
26696;SDS011;14312;52.614;13.496;2022-08-01T00:11:31;2.80;;;2.60;;
26696;SDS011;14312;52.614;13.496;2022-08-01T00:14:16;2.70;;;2.50;;
26696;SDS011;14312;52.614;13.496;2022-08-01T00:17:02;2.28;;;2.10;;
26696;SDS011;14312;52.614;13.496;2022-08-01T00:19:48;2.22;;;2.08;;
26696;SDS011;14312;52.614;13.496;2022-08-01T00:22:34;2.08;;;1.98;;
26696;SDS011;14312;52.614;13.496;2022-08-01T00:25:20;3.70;;;2.35;;
26696;SDS011;14312;52.614;13.496;2022-08-01T00:28:05;2.35;;;2.15;;
26696;SDS011;14312;52.614;13.496;2022-08-01T00:30:54;2.45;;;2.25;;
26696;SDS011;14312;52.614;13.496;2022-08-01T00:33:39;2.20;;;2.10;;
26696;SDS011;14312;52.614;13.496;2022-08-01T00:36:25;2.33;;;2.17;;
26696;SDS011;14312;52.614;13.496;2022-08-01T00:39:12;2.72;;;2.53;;
26696;SDS011;14312;52.614;13.496;2022-08-01T00:41:58;2.75;;;2.55;;
26696;SDS011;14312;52.614;13.496;2022-08-01T00:45:05;2.65;;;2.30;;
26696;SDS011;14312;52.614;13.496;2022-08-01T00:47:51;3.42;;;2.95;;
26696;SDS011;14312;52.614;13.496;2022-08-01T00:50:37;2.50;;;2.30;;
26696;SDS011;14312;52.614;13.496;2022-08-01T00:53:24;2.13;;;2.03;;
26696;SDS011;14312;52.614;13.496;2022-08-01T00:56:10;3.70;;;2.33;;
26696;SDS011;14312;52.614;13.496;2022-08-01T00:58:56;3.65;;;2.40;;
26696;SDS011;14312;52.614;13.496;2022-08-01T01:01:43;2.85;;;2.15;;
26696;SDS011;14312;52.614;13.496;2022-08-01T01:04:29;2.45;;;2.25;;
26696;SDS011;14312;52.614;13.496;2022-08-01T01:10:17;2.55;;;2.17;;
26696;SDS011;14312;52.614;13.496;2022-08-01T01:13:13;2.90;;;2.33;;
26696;SDS011;14312;52.614;13.496;2022-08-01T01:16:08;2.17;;;1.98;;
26696;SDS011;14312;52.614;13.496;2022-08-01T01:19:00;2.38;;;2.10;;
26696;SDS011;14312;52.614;13.496;2022-08-01T01:21:54;1.90;;;1.80;;
26696;SDS011;14312;52.614;13.496;2022-08-01T01:25:17;1.80;;;1.70;;
26696;SDS011;14312;52.614;13.496;2022-08-01T01:30:59;2.08;;;1.98;;
26696;SDS011;14312;52.614;13.496;2022-08-01T01:33:48;1.90;;;1.80;;
26696;SDS011;14312;52.614;13.496;2022-08-01T01:36:35;1.70;;;1.60;;
26696;SDS011;14312;52.614;13.496;2022-08-01T01:39:22;2.47;;;2.20;;
26696;SDS011;14312;52.614;13.496;2022-08-01T01:42:11;2.63;;;2.13;;
26696;SDS011;14312;52.614;13.496;2022-08-01T01:44:59;2.08;;;1.90;;
26696;SDS011;14312;52.614;13.496;2022-08-01T01:47:48;2.22;;;2.05;;
26696;SDS011;14312;52.614;13.496;2022-08-01T01:50:35;1.83;;;1.73;;
26696;SDS011;14312;52.614;13.496;2022-08-01T01:53:22;3.47;;;2.40;;
26696;SDS011;14312;52.614;13.496;2022-08-01T01:56:10;2.50;;;2.30;;
26696;SDS011;14312;52.614;13.496;2022-08-01T01:58:59;2.95;;;2.30;;
26696;SDS011;14312;52.614;13.496;2022-08-01T02:01:49;2.35;;;2.20;;
26696;SDS011;14312;52.614;13.496;2022-08-01T02:04:39;2.75;;;2.15;;
26696;SDS011;14312;52.614;13.496;2022-08-01T02:07:28;2.20;;;2.00;;
26696;SDS011;14312;52.614;13.496;2022-08-01T02:10:14;2.67;;;2.47;;
26696;SDS011;14312;52.614;13.496;2022-08-01T02:13:03;2.83;;;2.47;;
26696;SDS011;14312;52.614;13.496;2022-08-01T02:15:51;2.40;;;2.20;;
26696;SDS011;14312;52.614;13.496;2022-08-01T02:18:37;2.60;;;2.38;;
26696;SDS011;14312;52.614;13.496;2022-08-01T02:21:28;3.10;;;2.42;;
26696;SDS011;14312;52.614;13.496;2022-08-01T02:24:28;3.13;;;2.83;;
26696;SDS011;14312;52.614;13.496;2022-08-01T02:27:22;2.63;;;2.42;;
26696;SDS011;14312;52.614;13.496;2022-08-01T02:30:15;2.40;;;2.20;;
26696;SDS011;14312;52.614;13.496;2022-08-01T02:33:03;2.42;;;2.20;;
26696;SDS011;14312;52.614;13.496;2022-08-01T02:35:54;2.30;;;2.10;;
26696;SDS011;14312;52.614;13.496;2022-08-01T02:38:44;2.55;;;2.25;;
26696;SDS011;14312;52.614;13.496;2022-08-01T02:41:31;2.40;;;2.20;;
26696;SDS011;14312;52.614;13.496;2022-08-01T02:44:24;2.30;;;2.10;;
26696;SDS011;14312;52.614;13.496;2022-08-01T02:47:13;2.20;;;2.10;;
26696;SDS011;14312;52.614;13.496;2022-08-01T02:50:02;2.83;;;2.00;;
26696;SDS011;14312;52.614;13.496;2022-08-01T02:52:48;2.13;;;2.03;;
26696;SDS011;14312;52.614;13.496;2022-08-01T02:55:36;2.22;;;2.13;;
26696;SDS011;14312;52.614;13.496;2022-08-01T02:58:25;2.40;;;2.20;;
26696;SDS011;14312;52.614;13.496;2022-08-01T03:01:11;2.85;;;2.35;;
26696;SDS011;14312;52.614;13.496;2022-08-01T03:04:00;2.50;;;2.28;;
26696;SDS011;14312;52.614;13.496;2022-08-01T03:06:46;2.50;;;2.30;;
26696;SDS011;14312;52.614;13.496;2022-08-01T03:09:34;2.53;;;2.33;;
26696;SDS011;14312;52.614;13.496;2022-08-01T03:12:25;2.30;;;2.10;;
26696;SDS011;14312;52.614;13.496;2022-08-01T03:15:15;3.17;;;2.28;;
26696;SDS011;14312;52.614;13.496;2022-08-01T03:18:02;2.50;;;2.30;;
26696;SDS011;14312;52.614;13.496;2022-08-01T03:20:51;2.30;;;2.10;;
26696;SDS011;14312;52.614;13.496;2022-08-01T03:23:40;2.53;;;2.33;;
26696;SDS011;14312;52.614;13.496;2022-08-01T03:26:28;3.65;;;2.33;;
26696;SDS011;14312;52.614;13.496;2022-08-01T03:29:16;2.60;;;2.40;;
26696;SDS011;14312;52.614;13.496;2022-08-01T03:32:10;4.97;;;2.20;;
26696;SDS011;14312;52.614;13.496;2022-08-01T03:34:57;2.08;;;1.90;;
26696;SDS011;14312;52.614;13.496;2022-08-01T03:37:50;2.28;;;1.88;;
26696;SDS011;14312;52.614;13.496;2022-08-01T03:40:40;2.28;;;2.08;;
26696;SDS011;14312;52.614;13.496;2022-08-01T03:43:32;2.45;;;2.25;;
26696;SDS011;14312;52.614;13.496;2022-08-01T03:46:23;2.72;;;2.40;;
26696;SDS011;14312;52.614;13.496;2022-08-01T03:49:14;2.65;;;2.45;;
26696;SDS011;14312;52.614;13.496;2022-08-01T03:52:04;2.42;;;2.22;;
26696;SDS011;14312;52.614;13.496;2022-08-01T03:54:54;2.13;;;2.03;;
26696;SDS011;14312;52.614;13.496;2022-08-01T03:57:41;2.40;;;2.20;;
26696;SDS011;14312;52.614;13.496;2022-08-01T04:00:29;4.15;;;2.28;;
26696;SDS011;14312;52.614;13.496;2022-08-01T04:03:16;2.85;;;2.65;;
26696;SDS011;14312;52.614;13.496;2022-08-01T04:06:05;2.67;;;2.47;;
26696;SDS011;14312;52.614;13.496;2022-08-01T04:08:53;2.97;;;2.78;;
26696;SDS011;14312;52.614;13.496;2022-08-01T04:11:42;2.15;;;2.05;;
26696;SDS011;14312;52.614;13.496;2022-08-01T04:14:28;2.60;;;2.40;;
26696;SDS011;14312;52.614;13.496;2022-08-01T04:17:14;3.10;;;2.90;;
26696;SDS011;14312;52.614;13.496;2022-08-01T04:20:01;2.80;;;2.60;;
26696;SDS011;14312;52.614;13.496;2022-08-01T04:22:47;5.30;;;2.67;;
26696;SDS011;14312;52.614;13.496;2022-08-01T04:25:33;3.15;;;2.95;;
26696;SDS011;14312;52.614;13.496;2022-08-01T04:28:20;3.35;;;2.63;;
26696;SDS011;14312;52.614;13.496;2022-08-01T04:31:08;2.75;;;2.55;;
26696;SDS011;14312;52.614;13.496;2022-08-01T04:33:57;2.75;;;2.55;;
26696;SDS011;14312;52.614;13.496;2022-08-01T04:36:45;2.78;;;2.58;;
26696;SDS011;14312;52.614;13.496;2022-08-01T04:39:34;2.85;;;2.65;;
26696;SDS011;14312;52.614;13.496;2022-08-01T04:42:22;4.05;;;2.95;;
26696;SDS011;14312;52.614;13.496;2022-08-01T04:45:08;4.13;;;3.60;;
26696;SDS011;14312;52.614;13.496;2022-08-01T04:47:54;3.20;;;2.60;;
26696;SDS011;14312;52.614;13.496;2022-08-01T04:50:42;3.08;;;2.88;;
26696;SDS011;14312;52.614;13.496;2022-08-01T04:53:28;3.35;;;3.08;;
26696;SDS011;14312;52.614;13.496;2022-08-01T04:56:14;3.55;;;3.25;;
26696;SDS011;14312;52.614;13.496;2022-08-01T04:59:00;6.30;;;3.22;;
26696;SDS011;14312;52.614;13.496;2022-08-01T05:02:05;4.28;;;3.88;;
26696;SDS011;14312;52.614;13.496;2022-08-01T05:04:54;4.40;;;3.25;;
26696;SDS011;14312;52.614;13.496;2022-08-01T05:07:40;3.90;;;3.50;;
26696;SDS011;14312;52.614;13.496;2022-08-01T05:10:26;4.55;;;4.15;;
26696;SDS011;14312;52.614;13.496;2022-08-01T05:13:13;4.35;;;3.95;;
26696;SDS011;14312;52.614;13.496;2022-08-01T05:15:58;4.85;;;4.32;;
26696;SDS011;14312;52.614;13.496;2022-08-01T05:18:44;4.78;;;4.38;;
26696;SDS011;14312;52.614;13.496;2022-08-01T05:21:30;5.55;;;5.05;;
26696;SDS011;14312;52.614;13.496;2022-08-01T05:24:16;4.82;;;4.43;;
26696;SDS011;14312;52.614;13.496;2022-08-01T05:27:02;7.20;;;4.60;;
26696;SDS011;14312;52.614;13.496;2022-08-01T05:29:49;4.93;;;4.47;;
26696;SDS011;14312;52.614;13.496;2022-08-01T05:32:35;5.28;;;4.78;;
26696;SDS011;14312;52.614;13.496;2022-08-01T05:35:21;4.78;;;4.38;;
26696;SDS011;14312;52.614;13.496;2022-08-01T05:38:07;4.70;;;4.30;;
26696;SDS011;14312;52.614;13.496;2022-08-01T05:40:53;5.20;;;4.63;;
26696;SDS011;14312;52.614;13.496;2022-08-01T05:43:38;5.00;;;4.60;;
26696;SDS011;14312;52.614;13.496;2022-08-01T05:46:24;4.65;;;4.25;;
26696;SDS011;14312;52.614;13.496;2022-08-01T05:49:10;5.22;;;4.72;;
26696;SDS011;14312;52.614;13.496;2022-08-01T05:51:56;5.32;;;4.82;;
26696;SDS011;14312;52.614;13.496;2022-08-01T05:54:42;5.18;;;4.55;;
26696;SDS011;14312;52.614;13.496;2022-08-01T05:57:28;5.70;;;5.30;;
26696;SDS011;14312;52.614;13.496;2022-08-01T06:00:14;5.15;;;4.68;;
26696;SDS011;14312;52.614;13.496;2022-08-01T06:03:02;4.93;;;4.00;;
26696;SDS011;14312;52.614;13.496;2022-08-01T06:05:48;5.50;;;5.10;;
26696;SDS011;14312;52.614;13.496;2022-08-01T06:08:34;6.55;;;5.95;;
26696;SDS011;14312;52.614;13.496;2022-08-01T06:11:20;4.95;;;4.55;;
26696;SDS011;14312;52.614;13.496;2022-08-01T06:14:06;4.80;;;4.50;;
26696;SDS011;14312;52.614;13.496;2022-08-01T06:16:52;4.85;;;4.45;;
26696;SDS011;14312;52.614;13.496;2022-08-01T06:19:38;4.85;;;4.45;;
26696;SDS011;14312;52.614;13.496;2022-08-01T06:22:23;4.82;;;4.43;;
26696;SDS011;14312;52.614;13.496;2022-08-01T06:25:09;4.72;;;4.35;;
26696;SDS011;14312;52.614;13.496;2022-08-01T06:27:55;5.05;;;4.43;;
26696;SDS011;14312;52.614;13.496;2022-08-01T06:30:41;5.72;;;5.22;;
26696;SDS011;14312;52.614;13.496;2022-08-01T06:33:27;5.53;;;5.03;;
26696;SDS011;14312;52.614;13.496;2022-08-01T06:36:13;4.88;;;4.47;;
26696;SDS011;14312;52.614;13.496;2022-08-01T06:38:59;4.53;;;4.13;;
26696;SDS011;14312;52.614;13.496;2022-08-01T06:41:45;4.13;;;3.78;;
26696;SDS011;14312;52.614;13.496;2022-08-01T06:44:33;4.40;;;4.10;;
26696;SDS011;14312;52.614;13.496;2022-08-01T06:47:19;4.57;;;4.18;;
26696;SDS011;14312;52.614;13.496;2022-08-01T06:50:06;4.00;;;3.13;;
26696;SDS011;14312;52.614;13.496;2022-08-01T06:52:54;3.90;;;3.60;;
26696;SDS011;14312;52.614;13.496;2022-08-01T06:55:39;4.43;;;3.90;;
26696;SDS011;14312;52.614;13.496;2022-08-01T06:58:25;2.97;;;2.78;;
26696;SDS011;14312;52.614;13.496;2022-08-01T07:01:11;3.85;;;3.55;;
26696;SDS011;14312;52.614;13.496;2022-08-01T07:03:57;3.17;;;2.97;;
26696;SDS011;14312;52.614;13.496;2022-08-01T07:06:43;2.50;;;2.40;;
26696;SDS011;14312;52.614;13.496;2022-08-01T07:09:28;3.42;;;3.13;;
26696;SDS011;14312;52.614;13.496;2022-08-01T07:12:15;2.78;;;2.50;;
26696;SDS011;14312;52.614;13.496;2022-08-01T07:15:01;2.60;;;2.40;;
26696;SDS011;14312;52.614;13.496;2022-08-01T07:17:47;2.65;;;2.45;;
26696;SDS011;14312;52.614;13.496;2022-08-01T07:20:33;2.97;;;2.78;;
26696;SDS011;14312;52.614;13.496;2022-08-01T07:23:19;2.50;;;2.40;;
26696;SDS011;14312;52.614;13.496;2022-08-01T07:26:05;2.72;;;2.40;;
26696;SDS011;14312;52.614;13.496;2022-08-01T07:28:54;2.28;;;2.13;;
26696;SDS011;14312;52.614;13.496;2022-08-01T07:31:40;3.45;;;2.58;;
26696;SDS011;14312;52.614;13.496;2022-08-01T07:34:26;2.45;;;2.25;;
26696;SDS011;14312;52.614;13.496;2022-08-01T07:37:13;2.92;;;2.72;;
26696;SDS011;14312;52.614;13.496;2022-08-01T07:39:58;2.83;;;2.63;;
26696;SDS011;14312;52.614;13.496;2022-08-01T07:42:49;2.35;;;2.20;;
26696;SDS011;14312;52.614;13.496;2022-08-01T07:45:35;2.65;;;2.50;;
26696;SDS011;14312;52.614;13.496;2022-08-01T07:48:23;2.90;;;2.70;;
26696;SDS011;14312;52.614;13.496;2022-08-01T07:51:10;2.85;;;2.65;;
26696;SDS011;14312;52.614;13.496;2022-08-01T07:53:56;2.55;;;2.35;;
26696;SDS011;14312;52.614;13.496;2022-08-01T07:56:42;3.03;;;2.83;;
26696;SDS011;14312;52.614;13.496;2022-08-01T07:59:28;2.90;;;2.70;;
26696;SDS011;14312;52.614;13.496;2022-08-01T08:02:15;3.22;;;2.70;;
26696;SDS011;14312;52.614;13.496;2022-08-01T08:05:00;2.40;;;2.20;;
26696;SDS011;14312;52.614;13.496;2022-08-01T08:07:46;2.38;;;2.17;;
26696;SDS011;14312;52.614;13.496;2022-08-01T08:10:32;2.40;;;2.20;;
26696;SDS011;14312;52.614;13.496;2022-08-01T08:13:18;2.33;;;2.17;;
26696;SDS011;14312;52.614;13.496;2022-08-01T08:16:04;2.15;;;2.00;;
26696;SDS011;14312;52.614;13.496;2022-08-01T08:18:50;2.10;;;2.00;;
26696;SDS011;14312;52.614;13.496;2022-08-01T08:21:36;2.30;;;2.13;;
26696;SDS011;14312;52.614;13.496;2022-08-01T08:24:23;1.95;;;1.85;;
26696;SDS011;14312;52.614;13.496;2022-08-01T08:27:09;1.90;;;1.80;;
26696;SDS011;14312;52.614;13.496;2022-08-01T08:29:55;2.08;;;1.98;;
26696;SDS011;14312;52.614;13.496;2022-08-01T08:32:41;2.35;;;2.05;;
26696;SDS011;14312;52.614;13.496;2022-08-01T08:35:27;1.83;;;1.73;;
26696;SDS011;14312;52.614;13.496;2022-08-01T08:38:13;2.17;;;2.08;;
26696;SDS011;14312;52.614;13.496;2022-08-01T08:40:59;2.30;;;1.98;;
26696;SDS011;14312;52.614;13.496;2022-08-01T08:43:45;2.03;;;1.92;;
26696;SDS011;14312;52.614;13.496;2022-08-01T08:46:31;2.00;;;1.90;;
26696;SDS011;14312;52.614;13.496;2022-08-01T08:49:20;1.90;;;1.80;;
26696;SDS011;14312;52.614;13.496;2022-08-01T08:52:08;1.70;;;1.60;;
26696;SDS011;14312;52.614;13.496;2022-08-01T08:54:55;1.77;;;1.67;;
26696;SDS011;14312;52.614;13.496;2022-08-01T08:57:41;1.65;;;1.52;;
26696;SDS011;14312;52.614;13.496;2022-08-01T09:00:29;2.00;;;1.90;;
26696;SDS011;14312;52.614;13.496;2022-08-01T09:03:15;2.10;;;1.80;;
26696;SDS011;14312;52.614;13.496;2022-08-01T09:06:02;1.77;;;1.67;;
26696;SDS011;14312;52.614;13.496;2022-08-01T09:08:48;1.80;;;1.67;;
26696;SDS011;14312;52.614;13.496;2022-08-01T09:11:34;1.42;;;1.33;;
26696;SDS011;14312;52.614;13.496;2022-08-01T09:14:21;1.60;;;1.50;;
26696;SDS011;14312;52.614;13.496;2022-08-01T09:17:09;1.95;;;1.60;;
26696;SDS011;14312;52.614;13.496;2022-08-01T09:19:56;2.08;;;1.90;;
26696;SDS011;14312;52.614;13.496;2022-08-01T09:22:42;3.20;;;2.00;;
26696;SDS011;14312;52.614;13.496;2022-08-01T09:25:27;1.65;;;1.55;;
26696;SDS011;14312;52.614;13.496;2022-08-01T09:28:18;1.60;;;1.50;;
26696;SDS011;14312;52.614;13.496;2022-08-01T09:31:16;1.63;;;1.52;;
26696;SDS011;14312;52.614;13.496;2022-08-01T09:34:02;1.45;;;1.35;;
26696;SDS011;14312;52.614;13.496;2022-08-01T09:36:50;1.50;;;1.40;;
26696;SDS011;14312;52.614;13.496;2022-08-01T09:39:39;1.50;;;1.40;;
26696;SDS011;14312;52.614;13.496;2022-08-01T09:42:28;1.33;;;1.25;;
26696;SDS011;14312;52.614;13.496;2022-08-01T09:45:32;1.50;;;1.40;;
26696;SDS011;14312;52.614;13.496;2022-08-01T09:48:19;1.52;;;1.42;;
26696;SDS011;14312;52.614;13.496;2022-08-01T09:51:06;1.75;;;1.52;;
26696;SDS011;14312;52.614;13.496;2022-08-01T09:53:53;1.42;;;1.33;;
26696;SDS011;14312;52.614;13.496;2022-08-01T09:56:39;1.30;;;1.20;;
26696;SDS011;14312;52.614;13.496;2022-08-01T09:59:35;1.50;;;1.40;;
26696;SDS011;14312;52.614;13.496;2022-08-01T10:02:27;1.50;;;1.40;;
26696;SDS011;14312;52.614;13.496;2022-08-01T10:05:17;1.80;;;1.70;;
26696;SDS011;14312;52.614;13.496;2022-08-01T10:08:15;1.60;;;1.50;;
26696;SDS011;14312;52.614;13.496;2022-08-01T10:11:06;1.55;;;1.45;;
26696;SDS011;14312;52.614;13.496;2022-08-01T10:13:54;1.60;;;1.40;;
26696;SDS011;14312;52.614;13.496;2022-08-01T10:16:41;1.60;;;1.50;;
26696;SDS011;14312;52.614;13.496;2022-08-01T10:19:31;1.85;;;1.65;;
26696;SDS011;14312;52.614;13.496;2022-08-01T10:22:18;1.67;;;1.58;;
26696;SDS011;14312;52.614;13.496;2022-08-01T10:25:05;1.73;;;1.60;;
26696;SDS011;14312;52.614;13.496;2022-08-01T10:27:52;1.73;;;1.63;;
26696;SDS011;14312;52.614;13.496;2022-08-01T10:30:41;1.67;;;1.58;;
26696;SDS011;14312;52.614;13.496;2022-08-01T10:33:29;1.70;;;1.60;;
26696;SDS011;14312;52.614;13.496;2022-08-01T10:36:17;1.98;;;1.88;;
26696;SDS011;14312;52.614;13.496;2022-08-01T10:39:05;2.67;;;1.95;;
26696;SDS011;14312;52.614;13.496;2022-08-01T10:41:51;1.83;;;1.73;;
26696;SDS011;14312;52.614;13.496;2022-08-01T10:44:38;1.73;;;1.63;;
26696;SDS011;14312;52.614;13.496;2022-08-01T10:47:27;1.98;;;1.88;;
26696;SDS011;14312;52.614;13.496;2022-08-01T10:53:25;1.98;;;1.80;;
26696;SDS011;14312;52.614;13.496;2022-08-01T10:56:12;1.60;;;1.50;;
26696;SDS011;14312;52.614;13.496;2022-08-01T10:59:00;1.85;;;1.60;;
26696;SDS011;14312;52.614;13.496;2022-08-01T11:01:55;1.65;;;1.55;;
26696;SDS011;14312;52.614;13.496;2022-08-01T11:07:53;1.67;;;1.58;;
26696;SDS011;14312;52.614;13.496;2022-08-01T11:10:40;1.50;;;1.40;;
26696;SDS011;14312;52.614;13.496;2022-08-01T11:16:46;1.42;;;1.33;;
26696;SDS011;14312;52.614;13.496;2022-08-01T11:28:31;1.40;;;1.10;;
26696;SDS011;14312;52.614;13.496;2022-08-01T11:34:06;1.85;;;1.00;;
26696;SDS011;14312;52.614;13.496;2022-08-01T11:37:11;1.08;;;0.90;;
26696;SDS011;14312;52.614;13.496;2022-08-01T11:45:58;0.70;;;0.70;;
26696;SDS011;14312;52.614;13.496;2022-08-01T11:48:44;0.80;;;0.80;;
26696;SDS011;14312;52.614;13.496;2022-08-01T11:51:32;1.10;;;1.10;;
26696;SDS011;14312;52.614;13.496;2022-08-01T11:54:18;1.20;;;1.10;;
26696;SDS011;14312;52.614;13.496;2022-08-01T11:57:06;0.90;;;0.90;;
26696;SDS011;14312;52.614;13.496;2022-08-01T11:59:53;2.42;;;1.00;;
26696;SDS011;14312;52.614;13.496;2022-08-01T12:02:41;0.95;;;0.95;;
26696;SDS011;14312;52.614;13.496;2022-08-01T12:05:30;1.73;;;1.52;;
26696;SDS011;14312;52.614;13.496;2022-08-01T12:08:31;1.00;;;1.00;;
26696;SDS011;14312;52.614;13.496;2022-08-01T12:11:19;1.00;;;1.00;;
26696;SDS011;14312;52.614;13.496;2022-08-01T12:14:05;2.28;;;1.13;;
26696;SDS011;14312;52.614;13.496;2022-08-01T12:16:52;0.90;;;0.90;;
26696;SDS011;14312;52.614;13.496;2022-08-01T12:19:39;0.88;;;0.88;;
26696;SDS011;14312;52.614;13.496;2022-08-01T12:22:26;0.93;;;0.93;;
26696;SDS011;14312;52.614;13.496;2022-08-01T12:25:13;1.77;;;1.10;;
26696;SDS011;14312;52.614;13.496;2022-08-01T12:28:01;1.17;;;1.08;;
26696;SDS011;14312;52.614;13.496;2022-08-01T12:30:48;1.30;;;0.90;;
26696;SDS011;14312;52.614;13.496;2022-08-01T12:33:35;1.00;;;1.00;;
26696;SDS011;14312;52.614;13.496;2022-08-01T12:36:28;1.05;;;1.00;;
26696;SDS011;14312;52.614;13.496;2022-08-01T12:39:14;0.93;;;0.93;;
26696;SDS011;14312;52.614;13.496;2022-08-01T12:42:00;1.05;;;0.95;;
26696;SDS011;14312;52.614;13.496;2022-08-01T12:44:47;2.13;;;1.02;;
26696;SDS011;14312;52.614;13.496;2022-08-01T12:47:37;0.90;;;0.90;;
26696;SDS011;14312;52.614;13.496;2022-08-01T12:50:23;0.98;;;0.98;;
26696;SDS011;14312;52.614;13.496;2022-08-01T12:53:13;0.80;;;0.80;;
26696;SDS011;14312;52.614;13.496;2022-08-01T12:56:00;1.83;;;1.10;;
26696;SDS011;14312;52.614;13.496;2022-08-01T12:58:45;0.90;;;0.90;;
26696;SDS011;14312;52.614;13.496;2022-08-01T13:01:31;1.00;;;1.00;;
26696;SDS011;14312;52.614;13.496;2022-08-01T13:04:17;1.27;;;1.17;;
26696;SDS011;14312;52.614;13.496;2022-08-01T13:07:04;1.10;;;1.10;;
26696;SDS011;14312;52.614;13.496;2022-08-01T13:09:50;1.25;;;1.15;;
26696;SDS011;14312;52.614;13.496;2022-08-01T13:12:37;1.20;;;1.10;;
26696;SDS011;14312;52.614;13.496;2022-08-01T13:15:31;1.40;;;1.30;;
26696;SDS011;14312;52.614;13.496;2022-08-01T13:18:26;1.33;;;1.23;;
26696;SDS011;14312;52.614;13.496;2022-08-01T13:21:13;1.20;;;1.10;;
26696;SDS011;14312;52.614;13.496;2022-08-01T13:24:02;1.10;;;1.10;;
26696;SDS011;14312;52.614;13.496;2022-08-01T13:26:59;1.10;;;1.10;;
26696;SDS011;14312;52.614;13.496;2022-08-01T13:29:48;1.10;;;1.10;;
26696;SDS011;14312;52.614;13.496;2022-08-01T13:32:38;0.90;;;0.90;;
26696;SDS011;14312;52.614;13.496;2022-08-01T13:35:24;1.20;;;1.10;;
26696;SDS011;14312;52.614;13.496;2022-08-01T13:38:10;1.15;;;1.10;;
26696;SDS011;14312;52.614;13.496;2022-08-01T13:40:58;1.30;;;1.20;;
26696;SDS011;14312;52.614;13.496;2022-08-01T13:43:44;1.10;;;1.00;;
26696;SDS011;14312;52.614;13.496;2022-08-01T13:46:30;2.95;;;1.08;;
26696;SDS011;14312;52.614;13.496;2022-08-01T13:49:16;1.00;;;1.00;;
26696;SDS011;14312;52.614;13.496;2022-08-01T13:52:03;2.25;;;1.10;;
26696;SDS011;14312;52.614;13.496;2022-08-01T13:54:51;1.23;;;1.13;;
26696;SDS011;14312;52.614;13.496;2022-08-01T13:57:37;1.67;;;1.30;;
26696;SDS011;14312;52.614;13.496;2022-08-01T14:00:23;1.60;;;1.10;;
26696;SDS011;14312;52.614;13.496;2022-08-01T14:03:09;1.40;;;1.30;;
26696;SDS011;14312;52.614;13.496;2022-08-01T14:05:55;2.03;;;1.20;;
26696;SDS011;14312;52.614;13.496;2022-08-01T14:08:42;1.80;;;1.10;;
26696;SDS011;14312;52.614;13.496;2022-08-01T14:11:28;1.17;;;1.08;;
26696;SDS011;14312;52.614;13.496;2022-08-01T14:14:14;0.90;;;0.90;;
26696;SDS011;14312;52.614;13.496;2022-08-01T14:17:00;1.15;;;1.13;;
26696;SDS011;14312;52.614;13.496;2022-08-01T14:19:46;1.13;;;1.13;;
26696;SDS011;14312;52.614;13.496;2022-08-01T14:22:32;1.10;;;1.00;;
26696;SDS011;14312;52.614;13.496;2022-08-01T14:25:18;2.55;;;1.30;;
26696;SDS011;14312;52.614;13.496;2022-08-01T14:28:04;1.92;;;1.05;;
26696;SDS011;14312;52.614;13.496;2022-08-01T14:30:49;1.25;;;1.17;;
26696;SDS011;14312;52.614;13.496;2022-08-01T14:33:35;2.25;;;1.15;;
26696;SDS011;14312;52.614;13.496;2022-08-01T14:36:21;1.83;;;1.23;;
26696;SDS011;14312;52.614;13.496;2022-08-01T14:39:07;1.55;;;1.30;;
26696;SDS011;14312;52.614;13.496;2022-08-01T14:41:53;0.98;;;0.98;;
26696;SDS011;14312;52.614;13.496;2022-08-01T14:44:39;4.72;;;1.10;;
26696;SDS011;14312;52.614;13.496;2022-08-01T14:47:24;1.00;;;0.95;;
26696;SDS011;14312;52.614;13.496;2022-08-01T14:50:11;1.25;;;1.15;;
26696;SDS011;14312;52.614;13.496;2022-08-01T14:52:58;1.00;;;1.00;;
26696;SDS011;14312;52.614;13.496;2022-08-01T14:55:44;1.65;;;1.00;;
26696;SDS011;14312;52.614;13.496;2022-08-01T14:58:30;1.67;;;0.80;;
26696;SDS011;14312;52.614;13.496;2022-08-01T15:01:16;0.82;;;0.82;;
26696;SDS011;14312;52.614;13.496;2022-08-01T15:04:03;2.03;;;1.10;;
26696;SDS011;14312;52.614;13.496;2022-08-01T15:06:48;0.88;;;0.88;;
26696;SDS011;14312;52.614;13.496;2022-08-01T15:09:34;1.05;;;0.95;;
26696;SDS011;14312;52.614;13.496;2022-08-01T15:12:20;0.90;;;0.90;;
26696;SDS011;14312;52.614;13.496;2022-08-01T15:15:06;1.38;;;0.95;;
26696;SDS011;14312;52.614;13.496;2022-08-01T15:17:52;0.90;;;0.90;;
26696;SDS011;14312;52.614;13.496;2022-08-01T15:20:38;1.02;;;0.93;;
26696;SDS011;14312;52.614;13.496;2022-08-01T15:23:24;0.90;;;0.90;;
26696;SDS011;14312;52.614;13.496;2022-08-01T15:26:10;0.90;;;0.90;;
26696;SDS011;14312;52.614;13.496;2022-08-01T15:28:59;0.80;;;0.80;;
26696;SDS011;14312;52.614;13.496;2022-08-01T15:31:45;0.70;;;0.70;;
26696;SDS011;14312;52.614;13.496;2022-08-01T15:34:30;11.80;;;3.47;;
26696;SDS011;14312;52.614;13.496;2022-08-01T15:37:16;3.92;;;2.00;;
26696;SDS011;14312;52.614;13.496;2022-08-01T15:40:02;2.95;;;1.10;;
26696;SDS011;14312;52.614;13.496;2022-08-01T15:42:48;1.38;;;1.00;;
26696;SDS011;14312;52.614;13.496;2022-08-01T15:45:34;0.70;;;0.70;;
26696;SDS011;14312;52.614;13.496;2022-08-01T15:48:20;0.90;;;0.90;;
26696;SDS011;14312;52.614;13.496;2022-08-01T15:51:06;0.80;;;0.80;;
26696;SDS011;14312;52.614;13.496;2022-08-01T15:53:51;0.70;;;0.70;;
26696;SDS011;14312;52.614;13.496;2022-08-01T15:56:37;0.75;;;0.75;;
26696;SDS011;14312;52.614;13.496;2022-08-01T15:59:24;0.75;;;0.75;;
26696;SDS011;14312;52.614;13.496;2022-08-01T16:02:10;0.70;;;0.70;;
26696;SDS011;14312;52.614;13.496;2022-08-01T16:04:56;0.80;;;0.80;;
26696;SDS011;14312;52.614;13.496;2022-08-01T16:07:42;0.70;;;0.70;;
26696;SDS011;14312;52.614;13.496;2022-08-01T16:10:28;0.70;;;0.70;;
26696;SDS011;14312;52.614;13.496;2022-08-01T16:13:15;1.02;;;0.73;;
26696;SDS011;14312;52.614;13.496;2022-08-01T16:16:01;0.68;;;0.68;;
26696;SDS011;14312;52.614;13.496;2022-08-01T16:18:49;1.05;;;0.80;;
26696;SDS011;14312;52.614;13.496;2022-08-01T16:21:35;1.02;;;0.95;;
26696;SDS011;14312;52.614;13.496;2022-08-01T16:24:21;1.10;;;0.70;;
26696;SDS011;14312;52.614;13.496;2022-08-01T16:27:08;1.45;;;0.73;;
26696;SDS011;14312;52.614;13.496;2022-08-01T16:29:54;0.70;;;0.70;;
26696;SDS011;14312;52.614;13.496;2022-08-01T16:32:39;0.70;;;0.70;;
26696;SDS011;14312;52.614;13.496;2022-08-01T16:35:25;1.45;;;0.80;;
26696;SDS011;14312;52.614;13.496;2022-08-01T16:38:11;0.80;;;0.80;;
26696;SDS011;14312;52.614;13.496;2022-08-01T16:40:58;0.68;;;0.68;;
26696;SDS011;14312;52.614;13.496;2022-08-01T16:43:43;0.75;;;0.75;;
26696;SDS011;14312;52.614;13.496;2022-08-01T16:46:29;0.70;;;0.70;;
26696;SDS011;14312;52.614;13.496;2022-08-01T16:49:15;0.82;;;0.80;;
26696;SDS011;14312;52.614;13.496;2022-08-01T16:52:01;0.75;;;0.75;;
26696;SDS011;14312;52.614;13.496;2022-08-01T16:54:47;0.80;;;0.80;;
26696;SDS011;14312;52.614;13.496;2022-08-01T16:57:32;0.88;;;0.80;;
26696;SDS011;14312;52.614;13.496;2022-08-01T17:00:21;0.70;;;0.70;;
26696;SDS011;14312;52.614;13.496;2022-08-01T17:03:10;0.90;;;0.90;;
26696;SDS011;14312;52.614;13.496;2022-08-01T17:05:56;0.95;;;0.93;;